createdAt,value
2023-03-08T00:02:19.293Z,7.00
2023-03-08T00:04:46.347Z,2.92
2023-03-08T00:07:13.405Z,4.85
2023-03-08T00:09:40.793Z,2.92
2023-03-08T00:12:08.524Z,4.05
2023-03-08T00:14:35.766Z,2.85
2023-03-08T00:17:02.974Z,3.88
2023-03-08T00:19:30.179Z,5.80
2023-03-08T00:21:57.358Z,7.07
2023-03-08T00:24:24.322Z,4.18
2023-03-08T00:26:51.241Z,5.22
2023-03-08T00:29:18.203Z,3.13
2023-03-08T00:31:45.238Z,6.30
2023-03-08T00:34:12.273Z,5.93
2023-03-08T00:36:39.250Z,3.63
2023-03-08T00:39:06.332Z,4.63
2023-03-08T00:41:33.251Z,2.42
2023-03-08T00:44:00.173Z,3.88
2023-03-08T00:46:27.128Z,5.10
2023-03-08T00:48:54.043Z,5.18
2023-03-08T00:51:21.550Z,4.35
2023-03-08T00:53:48.913Z,5.20
2023-03-08T00:56:15.814Z,5.80
2023-03-08T00:58:42.776Z,3.67
2023-03-08T01:01:14.586Z,7.00
2023-03-08T01:03:41.523Z,3.83
2023-03-08T01:06:12.882Z,4.03
2023-03-08T01:08:42.735Z,5.13
2023-03-08T01:11:20.542Z,3.67
2023-03-08T01:13:47.677Z,3.85
2023-03-08T01:16:16.601Z,5.40
2023-03-08T01:18:43.577Z,3.60
2023-03-08T01:21:11.618Z,2.35
2023-03-08T01:23:39.936Z,5.13
2023-03-08T01:26:12.137Z,3.95
2023-03-08T01:28:39.462Z,5.70
2023-03-08T01:31:27.154Z,2.75
2023-03-08T01:33:54.552Z,3.90
2023-03-08T01:36:24.187Z,4.07
2023-03-08T01:38:51.732Z,4.75
2023-03-08T01:41:27.207Z,5.35
2023-03-08T01:43:54.751Z,3.55
2023-03-08T01:46:24.897Z,3.03
2023-03-08T01:49:06.293Z,2.42
2023-03-08T01:51:57.319Z,4.00
2023-03-08T01:54:30.280Z,2.80
2023-03-08T01:57:04.501Z,5.78
2023-03-08T01:59:34.672Z,3.53
2023-03-08T02:02:02.824Z,3.45
2023-03-08T02:04:29.896Z,3.28
2023-03-08T02:06:56.780Z,3.53
2023-03-08T02:09:24.318Z,2.42
2023-03-08T02:11:52.234Z,2.25
2023-03-08T02:14:19.126Z,4.10
2023-03-08T02:16:46.042Z,5.20
2023-03-08T02:19:23.788Z,3.78
2023-03-08T02:21:50.647Z,3.58
2023-03-08T02:24:20.478Z,4.00
2023-03-08T02:26:47.576Z,3.20
2023-03-08T02:29:14.509Z,4.25
2023-03-08T02:31:41.607Z,2.45
2023-03-08T02:34:08.519Z,5.85
2023-03-08T02:36:35.679Z,3.47
2023-03-08T02:39:02.577Z,1.92
2023-03-08T02:41:29.789Z,3.40
2023-03-08T02:43:56.940Z,3.63
2023-03-08T02:46:23.930Z,4.40
2023-03-08T02:48:52.926Z,5.38
2023-03-08T02:51:20.752Z,7.60
2023-03-08T02:53:47.657Z,3.13
2023-03-08T02:56:14.575Z,2.42
2023-03-08T02:58:41.567Z,3.40
2023-03-08T03:01:15.578Z,3.28
2023-03-08T03:03:42.794Z,2.20
2023-03-08T03:06:18.902Z,2.40
2023-03-08T03:08:46.405Z,5.13
2023-03-08T03:11:19.563Z,4.05
2023-03-08T03:13:47.003Z,2.75
2023-03-08T03:16:16.171Z,5.32
2023-03-08T03:18:43.363Z,4.35
2023-03-08T03:21:12.711Z,4.80
2023-03-08T03:23:40.781Z,3.00
2023-03-08T03:26:17.097Z,5.38
2023-03-08T03:28:44.477Z,3.38
2023-03-08T03:31:17.231Z,3.35
2023-03-08T03:33:44.884Z,2.78
2023-03-08T03:36:14.665Z,3.55
2023-03-08T03:38:41.578Z,4.70
2023-03-08T03:41:11.137Z,3.20
2023-03-08T03:43:38.823Z,4.10
2023-03-08T03:46:08.210Z,2.67
2023-03-08T03:48:36.351Z,2.72
2023-03-08T03:51:09.915Z,5.45
2023-03-08T03:53:37.444Z,2.10
2023-03-08T03:56:17.277Z,3.00
2023-03-08T03:58:44.656Z,6.30
2023-03-08T04:01:21.070Z,5.53
2023-03-08T04:03:48.889Z,3.30
2023-03-08T04:06:24.226Z,4.63
2023-03-08T04:08:56.454Z,1.88
2023-03-08T04:11:26.913Z,5.28
2023-03-08T04:13:54.181Z,3.38
2023-03-08T04:16:24.567Z,3.92
2023-03-08T04:18:57.363Z,5.65
2023-03-08T04:21:24.924Z,5.90
2023-03-08T04:23:52.740Z,3.08
2023-03-08T04:26:20.941Z,4.10
2023-03-08T04:28:48.363Z,8.20
2023-03-08T04:31:21.907Z,2.85
2023-03-08T04:33:49.575Z,5.45
2023-03-08T04:36:18.118Z,3.05
2023-03-08T04:38:45.841Z,2.70
2023-03-08T04:41:13.420Z,2.33
2023-03-08T04:43:44.133Z,4.35
2023-03-08T04:46:11.487Z,4.05
2023-03-08T04:48:38.732Z,6.93
2023-03-08T04:51:07.413Z,3.35
2023-03-08T04:53:35.377Z,3.90
2023-03-08T04:56:02.556Z,3.25
2023-03-08T04:58:30.113Z,3.95
2023-03-08T05:00:57.346Z,5.72
2023-03-08T05:03:25.293Z,2.17
2023-03-08T05:05:54.807Z,2.95
2023-03-08T05:08:22.636Z,4.20
2023-03-08T05:11:00.757Z,3.90
2023-03-08T05:13:30.224Z,1.98
2023-03-08T05:15:57.648Z,4.80
2023-03-08T05:18:24.910Z,6.32
2023-03-08T05:20:59.845Z,5.00
2023-03-08T05:23:28.790Z,4.75
2023-03-08T05:25:59.722Z,3.65
2023-03-08T05:28:29.177Z,4.85
2023-03-08T05:31:18.148Z,5.07
2023-03-08T05:33:46.667Z,3.65
2023-03-08T05:36:14.827Z,3.97
2023-03-08T05:38:42.372Z,2.45
2023-03-08T05:41:15.512Z,4.03
2023-03-08T05:43:42.769Z,4.38
2023-03-08T05:46:16.480Z,5.45
2023-03-08T05:48:43.840Z,5.85
2023-03-08T05:51:13.776Z,4.78
2023-03-08T05:53:41.701Z,5.43
2023-03-08T05:56:17.489Z,4.13
2023-03-08T05:58:47.360Z,4.05
2023-03-08T06:01:20.435Z,4.15
2023-03-08T06:03:49.672Z,5.35
2023-03-08T06:06:17.530Z,3.30
2023-03-08T06:08:44.625Z,2.88
2023-03-08T06:11:11.927Z,2.78
2023-03-08T06:13:38.866Z,4.38
2023-03-08T06:16:06.372Z,4.97
2023-03-08T06:18:34.110Z,4.97
2023-03-08T06:21:04.230Z,4.15
2023-03-08T06:23:32.644Z,5.78
2023-03-08T06:25:59.831Z,3.70
2023-03-08T06:28:28.181Z,3.28
2023-03-08T06:30:55.822Z,3.88
2023-03-08T06:33:25.579Z,3.88
2023-03-08T06:35:57.208Z,7.10
2023-03-08T06:38:24.412Z,6.90
2023-03-08T06:40:51.474Z,3.15
2023-03-08T06:43:18.710Z,5.88
2023-03-08T06:45:45.831Z,4.38
2023-03-08T06:48:13.279Z,2.20
2023-03-08T06:50:40.208Z,4.50
2023-03-08T06:53:07.798Z,4.40
2023-03-08T06:55:38.505Z,3.55
2023-03-08T06:58:05.770Z,2.40
2023-03-08T07:00:33.736Z,6.25
2023-03-08T07:03:00.900Z,3.15
2023-03-08T07:05:28.227Z,5.10
2023-03-08T07:07:55.221Z,5.13
2023-03-08T07:10:23.094Z,3.75
2023-03-08T07:12:51.467Z,4.30
2023-03-08T07:15:21.949Z,6.60
2023-03-08T07:17:51.629Z,4.53
2023-03-08T07:20:20.480Z,3.35
2023-03-08T07:22:47.433Z,5.28
2023-03-08T07:25:16.158Z,2.17
2023-03-08T07:27:43.181Z,4.55
2023-03-08T07:30:12.070Z,8.18
2023-03-08T07:32:40.953Z,2.33
2023-03-08T07:35:10.156Z,4.43
2023-03-08T07:37:37.360Z,2.88
2023-03-08T07:40:05.788Z,3.40
2023-03-08T07:42:32.882Z,2.20
2023-03-08T07:44:59.798Z,7.63
2023-03-08T07:47:26.772Z,3.70
2023-03-08T07:49:53.709Z,3.72
2023-03-08T07:52:20.636Z,2.58
2023-03-08T07:54:47.604Z,7.43
2023-03-08T07:57:15.463Z,3.83
2023-03-08T07:59:42.898Z,2.10
2023-03-08T08:02:13.524Z,3.80
2023-03-08T08:04:41.184Z,2.35
2023-03-08T08:07:13.328Z,2.10
2023-03-08T08:09:40.302Z,2.47
2023-03-08T08:12:07.966Z,5.13
2023-03-08T08:14:35.004Z,2.58
2023-03-08T08:17:01.941Z,2.90
2023-03-08T08:19:29.737Z,4.68
2023-03-08T08:21:56.620Z,4.15
2023-03-08T08:24:23.496Z,2.50
2023-03-08T08:26:50.463Z,3.35
2023-03-08T08:29:17.411Z,3.08
2023-03-08T08:31:44.462Z,3.50
2023-03-08T08:34:11.559Z,2.47
2023-03-08T08:36:38.590Z,3.83
2023-03-08T08:39:05.603Z,2.88
2023-03-08T08:41:32.574Z,3.65
2023-03-08T08:44:00.400Z,4.25
2023-03-08T08:46:28.733Z,3.03
2023-03-08T08:48:56.082Z,4.60
2023-03-08T08:51:23.322Z,2.13
2023-03-08T08:53:50.972Z,2.05
2023-03-08T08:56:26.993Z,2.55
2023-03-08T08:59:01.161Z,3.35
2023-03-08T09:01:31.605Z,4.72
2023-03-08T09:03:59.608Z,2.78
2023-03-08T09:06:28.426Z,3.50
2023-03-08T09:08:57.789Z,2.35
2023-03-08T09:11:27.029Z,4.25
2023-03-08T09:13:54.541Z,1.48
2023-03-08T09:16:26.475Z,3.15
2023-03-08T09:18:53.841Z,2.78
2023-03-08T09:21:20.792Z,2.67
2023-03-08T09:23:47.684Z,1.73
2023-03-08T09:26:14.870Z,1.77
2023-03-08T09:28:41.771Z,1.67
2023-03-08T09:31:17.033Z,3.30
2023-03-08T09:33:49.245Z,2.28
2023-03-08T09:36:16.629Z,1.67
2023-03-08T09:38:43.672Z,2.17
2023-03-08T09:41:19.444Z,5.97
2023-03-08T09:44:23.958Z,5.50
2023-03-08T09:47:13.821Z,1.48
2023-03-08T09:49:44.877Z,2.03
2023-03-08T09:52:25.796Z,3.00
2023-03-08T09:54:53.754Z,3.25
2023-03-08T09:57:27.068Z,1.67
2023-03-08T10:00:07.986Z,1.52
2023-03-08T10:02:59.129Z,2.53
2023-03-08T10:05:37.228Z,2.55
2023-03-08T10:08:21.151Z,2.65
2023-03-08T10:11:07.614Z,3.30
2023-03-08T10:13:43.059Z,2.67
2023-03-08T10:16:12.997Z,1.08
2023-03-08T10:18:51.651Z,2.83
2023-03-08T10:21:24.970Z,2.60
2023-03-08T10:24:15.684Z,1.97
2023-03-08T10:26:43.942Z,2.10
2023-03-08T10:29:14.466Z,3.70
2023-03-08T10:31:44.096Z,2.17
2023-03-08T10:34:31.263Z,1.75
2023-03-08T10:37:04.378Z,1.67
2023-03-08T10:39:31.348Z,2.15
2023-03-08T10:42:06.551Z,3.33
2023-03-08T10:44:44.528Z,2.45
2023-03-08T10:47:23.833Z,5.70
2023-03-08T10:50:14.894Z,1.77
2023-03-08T10:52:42.299Z,1.98
2023-03-08T10:55:16.101Z,1.67
2023-03-08T10:57:53.314Z,2.95
2023-03-08T11:00:20.343Z,1.70
2023-03-08T11:02:48.449Z,1.73
2023-03-08T11:05:29.476Z,2.33
2023-03-08T11:07:59.256Z,1.00
2023-03-08T11:10:28.452Z,2.50
2023-03-08T11:13:26.205Z,3.58
2023-03-08T11:16:24.795Z,1.83
2023-03-08T11:19:17.358Z,2.92
2023-03-08T11:21:54.957Z,1.95
2023-03-08T11:24:47.540Z,2.25
2023-03-08T11:27:32.348Z,0.98
2023-03-08T11:32:47.570Z,1.38
2023-03-08T11:35:22.346Z,1.55
2023-03-08T11:38:00.135Z,2.42
2023-03-08T11:41:08.706Z,2.05
2023-03-08T11:43:50.678Z,2.88
2023-03-08T11:46:32.010Z,3.65
2023-03-08T11:49:04.990Z,4.15
2023-03-08T11:52:27.064Z,7.15
2023-03-08T11:55:25.943Z,1.80
2023-03-08T11:57:58.474Z,3.15
2023-03-08T12:00:39.594Z,2.17
2023-03-08T12:03:31.082Z,1.92
2023-03-08T12:06:03.042Z,5.18
2023-03-08T12:08:52.947Z,2.33
2023-03-08T12:11:29.995Z,4.32
2023-03-08T12:14:13.588Z,1.45
2023-03-08T12:16:52.567Z,3.45
2023-03-08T12:19:38.139Z,3.85
2023-03-08T12:22:23.232Z,3.42
2023-03-08T12:25:01.178Z,3.00
2023-03-08T12:27:38.648Z,1.20
2023-03-08T12:30:34.951Z,2.25
2023-03-08T12:33:04.983Z,3.08
2023-03-08T12:35:36.784Z,1.98
2023-03-08T12:38:26.769Z,2.33
2023-03-08T12:40:55.256Z,4.05
2023-03-08T12:43:22.214Z,2.10
2023-03-08T12:46:01.018Z,1.98
2023-03-08T12:48:28.869Z,1.83
2023-03-08T12:51:04.000Z,3.30
2023-03-08T12:53:51.612Z,1.40
2023-03-08T12:56:30.039Z,2.03
2023-03-08T12:59:10.629Z,2.13
2023-03-08T13:01:44.136Z,3.35
2023-03-08T13:04:39.703Z,3.63
2023-03-08T13:07:16.525Z,2.28
2023-03-08T13:09:43.422Z,5.03
2023-03-08T13:12:16.277Z,4.93
2023-03-08T13:15:06.423Z,4.70
2023-03-08T13:17:41.485Z,2.30
2023-03-08T13:21:04.233Z,3.17
2023-03-08T13:23:41.985Z,2.75
2023-03-08T13:26:12.055Z,4.07
2023-03-08T13:28:47.565Z,4.68
2023-03-08T13:31:18.885Z,2.47
2023-03-08T13:33:54.635Z,2.45
2023-03-08T13:36:27.275Z,2.80
2023-03-08T13:39:04.997Z,2.85
2023-03-08T13:41:39.031Z,2.58
2023-03-08T13:44:22.367Z,3.97
2023-03-08T13:46:51.944Z,3.05
2023-03-08T13:49:42.092Z,2.75
2023-03-08T13:52:21.301Z,2.92
2023-03-08T13:54:55.089Z,4.10
2023-03-08T13:57:29.196Z,2.58
2023-03-08T13:59:59.959Z,1.85
2023-03-08T14:02:32.094Z,4.22
2023-03-08T14:04:59.601Z,3.10
2023-03-08T14:07:32.302Z,4.68
2023-03-08T14:09:59.619Z,3.30
2023-03-08T14:12:31.197Z,3.33
2023-03-08T14:15:02.623Z,3.42
2023-03-08T14:17:32.582Z,3.88
2023-03-08T14:20:15.616Z,2.20
2023-03-08T14:22:48.982Z,6.28
2023-03-08T14:25:24.651Z,4.65
2023-03-08T14:27:51.664Z,2.58
2023-03-08T14:30:25.211Z,2.10
2023-03-08T14:33:02.084Z,2.23
2023-03-08T14:35:32.935Z,2.88
2023-03-08T14:38:00.441Z,4.45
2023-03-08T14:40:36.003Z,3.20
2023-03-08T14:43:07.109Z,3.95
2023-03-08T14:46:01.508Z,3.63
2023-03-08T14:48:32.780Z,2.85
2023-03-08T14:51:25.471Z,3.13
2023-03-08T14:53:59.276Z,3.15
2023-03-08T14:56:27.912Z,6.03
2023-03-08T14:58:54.912Z,1.67
2023-03-08T15:01:27.112Z,2.75
2023-03-08T15:03:54.196Z,5.55
2023-03-08T15:06:36.297Z,3.10
2023-03-08T15:09:07.340Z,2.92
2023-03-08T15:11:35.144Z,4.28
2023-03-08T15:14:02.341Z,4.22
2023-03-08T15:16:29.340Z,3.15
2023-03-08T15:18:56.396Z,3.83
2023-03-08T15:21:25.785Z,2.92
2023-03-08T15:23:53.064Z,3.50
2023-03-08T15:26:31.665Z,4.75
2023-03-08T15:29:01.406Z,3.40
2023-03-08T15:31:28.334Z,4.00
2023-03-08T15:33:55.481Z,7.55
2023-03-08T15:36:22.410Z,6.28
2023-03-08T15:38:49.635Z,6.20
2023-03-08T15:41:17.267Z,3.40
2023-03-08T15:43:44.246Z,4.78
2023-03-08T15:46:13.985Z,5.15
2023-03-08T15:48:41.879Z,5.00
2023-03-08T15:51:19.851Z,3.50
2023-03-08T15:53:48.141Z,4.13
2023-03-08T15:56:15.574Z,3.03
2023-03-08T15:58:42.950Z,4.50
2023-03-08T16:01:10.006Z,3.78
2023-03-08T16:03:36.941Z,4.93
2023-03-08T16:06:12.391Z,2.83
2023-03-08T16:08:39.825Z,3.60
2023-03-08T16:11:11.324Z,3.97
2023-03-08T16:13:38.320Z,5.03
2023-03-08T16:16:06.235Z,4.63
2023-03-08T16:18:37.059Z,3.67
2023-03-08T16:21:10.458Z,8.25
2023-03-08T16:23:38.856Z,10.85
2023-03-08T16:26:15.747Z,8.73
2023-03-08T16:28:44.652Z,6.07
2023-03-08T16:31:11.942Z,6.88
2023-03-08T16:33:39.783Z,5.88
2023-03-08T16:36:07.015Z,5.13
2023-03-08T16:38:33.994Z,6.28
2023-03-08T16:41:12.225Z,5.38
2023-03-08T16:43:46.809Z,5.60
2023-03-08T16:46:17.724Z,4.15
2023-03-08T16:48:44.756Z,5.47
2023-03-08T16:51:15.856Z,5.07
2023-03-08T16:53:43.443Z,6.88
2023-03-08T16:56:18.113Z,3.58
2023-03-08T16:58:45.300Z,7.82
2023-03-08T17:01:13.841Z,5.63
2023-03-08T17:03:41.405Z,5.40
2023-03-08T17:06:09.752Z,6.80
2023-03-08T17:08:36.672Z,6.95
2023-03-08T17:11:05.153Z,9.88
2023-03-08T17:17:19.476Z,4.45
2023-03-08T17:19:46.443Z,5.03
2023-03-08T17:22:13.415Z,5.40
2023-03-08T17:24:40.393Z,6.22
2023-03-08T17:27:07.393Z,5.47
2023-03-08T17:29:34.346Z,4.40
2023-03-08T17:32:01.259Z,6.25
2023-03-08T17:34:28.349Z,7.22
2023-03-08T17:36:55.299Z,5.53
2023-03-08T17:39:22.345Z,5.43
2023-03-08T17:41:49.502Z,3.20
2023-03-08T17:44:16.452Z,4.63
2023-03-08T17:46:43.602Z,4.30
2023-03-08T17:49:13.112Z,5.05
2023-03-08T17:51:40.145Z,4.70
2023-03-08T17:54:07.586Z,5.78
2023-03-08T17:56:36.644Z,5.43
2023-03-08T17:59:03.596Z,5.18
2023-03-08T18:01:31.826Z,7.95
2023-03-08T18:03:59.326Z,4.03
2023-03-08T18:06:38.333Z,7.60
2023-03-08T18:09:10.935Z,6.38
2023-03-08T18:11:38.095Z,9.63
2023-03-08T18:14:13.485Z,11.32
2023-03-08T18:16:41.497Z,9.80
2023-03-08T18:19:08.659Z,8.95
2023-03-08T18:21:36.974Z,14.70
2023-03-08T18:24:05.285Z,11.43
2023-03-08T18:26:32.641Z,8.38
2023-03-08T18:28:59.610Z,7.85
2023-03-08T18:31:26.936Z,10.75
2023-03-08T18:33:55.395Z,6.38
2023-03-08T18:36:23.475Z,8.35
2023-03-08T18:38:50.717Z,11.13
2023-03-08T18:41:23.702Z,8.80
2023-03-08T18:43:51.382Z,6.95
2023-03-08T18:46:18.904Z,7.72
2023-03-08T18:48:52.138Z,7.40
2023-03-08T18:51:19.165Z,7.50
2023-03-08T18:53:46.128Z,8.50
2023-03-08T18:56:13.326Z,9.85
2023-03-08T18:58:40.317Z,14.80
2023-03-08T19:01:13.264Z,11.00
2023-03-08T19:03:41.590Z,9.85
2023-03-08T19:06:09.177Z,6.53
2023-03-08T19:08:36.436Z,9.70
2023-03-08T19:11:22.967Z,9.10
2023-03-08T19:13:50.391Z,8.82
2023-03-08T19:16:26.140Z,8.32
2023-03-08T19:18:55.521Z,6.32
2023-03-08T19:21:46.944Z,6.50
2023-03-08T19:24:15.336Z,7.75
2023-03-08T19:26:46.971Z,6.90
2023-03-08T19:29:19.625Z,10.90
2023-03-08T19:31:57.892Z,6.05
2023-03-08T19:34:27.804Z,8.80
2023-03-08T19:40:35.456Z,9.27
2023-03-08T19:43:02.354Z,11.18
2023-03-08T19:45:29.312Z,7.60
2023-03-08T19:47:56.240Z,10.02
2023-03-08T19:50:23.150Z,7.25
2023-03-08T19:52:50.072Z,7.88
2023-03-08T19:55:17.018Z,13.68
2023-03-08T19:57:43.961Z,10.15
2023-03-08T20:00:11.583Z,8.32
2023-03-08T20:02:39.527Z,11.20
2023-03-08T20:05:06.744Z,10.30
2023-03-08T20:07:33.688Z,8.77
2023-03-08T20:10:14.031Z,12.60
2023-03-08T20:12:43.169Z,8.45
2023-03-08T20:15:10.467Z,10.30
2023-03-08T20:17:38.807Z,12.50
2023-03-08T20:20:06.778Z,8.57
2023-03-08T20:22:33.730Z,12.23
2023-03-08T20:25:00.680Z,13.02
2023-03-08T20:27:29.165Z,9.80
2023-03-08T20:29:56.335Z,9.93
2023-03-08T20:32:23.286Z,11.18
2023-03-08T20:34:50.232Z,9.50
2023-03-08T20:37:17.129Z,10.35
2023-03-08T20:39:44.939Z,9.90
2023-03-08T20:42:11.880Z,11.60
2023-03-08T20:44:38.897Z,11.13
2023-03-08T20:47:06.049Z,10.15
2023-03-08T20:49:32.929Z,11.75
2023-03-08T20:51:59.881Z,13.38
2023-03-08T20:54:27.254Z,12.63
2023-03-08T20:56:54.292Z,13.50
2023-03-08T20:59:24.666Z,12.40
2023-03-08T21:01:51.681Z,14.13
2023-03-08T21:04:18.646Z,11.27
2023-03-08T21:06:45.853Z,14.10
2023-03-08T21:09:12.853Z,15.52
2023-03-08T21:11:40.412Z,17.15
2023-03-08T21:14:07.760Z,14.52
2023-03-08T21:16:35.164Z,14.18
2023-03-08T21:19:04.207Z,16.88
2023-03-08T21:21:34.498Z,12.63
2023-03-08T21:24:06.969Z,14.13
2023-03-08T21:26:34.836Z,14.57
2023-03-08T21:29:05.006Z,16.25
2023-03-08T21:31:34.614Z,18.77
2023-03-08T21:34:03.676Z,16.88
2023-03-08T21:36:31.128Z,18.08
2023-03-08T21:38:59.127Z,12.63
2023-03-08T21:41:32.170Z,12.60
2023-03-08T21:44:01.009Z,15.82
2023-03-08T21:46:28.116Z,15.18
2023-03-08T21:48:56.058Z,14.80
2023-03-08T21:51:23.916Z,17.33
2023-03-08T21:53:51.344Z,18.92
2023-03-08T21:56:18.429Z,14.90
2023-03-08T21:58:45.853Z,15.88
2023-03-08T22:01:24.800Z,16.70
2023-03-08T22:03:52.735Z,12.60
2023-03-08T22:06:20.006Z,12.95
2023-03-08T22:08:47.655Z,17.45
2023-03-08T22:11:15.057Z,15.40
2023-03-08T22:13:42.485Z,15.82
2023-03-08T22:16:09.742Z,14.30
2023-03-08T22:18:36.762Z,20.23
2023-03-08T22:21:04.643Z,19.15
2023-03-08T22:23:32.287Z,21.15
2023-03-08T22:25:59.207Z,16.80
2023-03-08T22:28:26.162Z,21.63
2023-03-08T22:30:53.399Z,25.83
2023-03-08T22:33:20.369Z,21.55
2023-03-08T22:35:47.968Z,17.23
2023-03-08T22:38:15.557Z,20.75
2023-03-08T22:40:43.154Z,22.42
2023-03-08T22:43:10.774Z,25.83
2023-03-08T22:45:37.808Z,23.10
2023-03-08T22:48:06.932Z,23.40
2023-03-08T22:50:33.907Z,22.45
2023-03-08T22:53:00.820Z,30.35
2023-03-08T22:55:27.834Z,23.60
2023-03-08T22:57:54.752Z,21.95
2023-03-08T23:00:21.724Z,30.70
2023-03-08T23:02:48.934Z,28.90
2023-03-08T23:05:20.476Z,22.83
2023-03-08T23:07:47.561Z,25.75
2023-03-08T23:10:16.689Z,26.05
2023-03-08T23:12:43.624Z,30.42
2023-03-08T23:15:10.987Z,23.92
2023-03-08T23:17:38.087Z,31.23
2023-03-08T23:20:05.895Z,29.45
2023-03-08T23:22:33.003Z,26.30
2023-03-08T23:25:00.100Z,31.15
2023-03-08T23:27:27.259Z,31.85
2023-03-08T23:29:54.459Z,24.98
2023-03-08T23:32:21.986Z,12.90
2023-03-08T23:34:49.111Z,34.35
2023-03-08T23:37:16.187Z,29.08
2023-03-08T23:39:43.231Z,28.00
2023-03-08T23:42:10.377Z,33.08
2023-03-08T23:44:38.147Z,32.10
2023-03-08T23:47:05.328Z,32.72
2023-03-08T23:49:32.244Z,31.42
2023-03-08T23:51:59.219Z,30.85
2023-03-08T23:54:26.109Z,25.98
2023-03-08T23:56:53.049Z,28.67
2023-03-08T23:59:22.658Z,30.70
